sensor_id;sensor_type;location;lat;lon;timestamp;pressure;altitude;pressure_sealevel;temperature;humidity
73551;BME280;61816;53.582;10.096;2022-12-04T00:01:24;102045.00;;;0.14;95.07
73551;BME280;61816;53.582;10.096;2022-12-04T00:03:54;102043.91;;;0.18;95.12
73551;BME280;61816;53.582;10.096;2022-12-04T00:06:21;102051.13;;;0.16;95.20
73551;BME280;61816;53.582;10.096;2022-12-04T00:08:47;102044.16;;;0.12;95.37
73551;BME280;61816;53.582;10.096;2022-12-04T00:11:16;102036.03;;;-0.05;95.40
73551;BME280;61816;53.582;10.096;2022-12-04T00:13:42;102044.94;;;-0.06;95.84
73551;BME280;61816;53.582;10.096;2022-12-04T00:16:11;102035.78;;;0.01;95.70
73551;BME280;61816;53.582;10.096;2022-12-04T00:18:37;102029.44;;;0.04;95.82
73551;BME280;61816;53.582;10.096;2022-12-04T00:21:08;102033.28;;;-0.04;95.82
73551;BME280;61816;53.582;10.096;2022-12-04T00:23:35;102049.75;;;0.06;96.23
73551;BME280;61816;53.582;10.096;2022-12-04T00:26:02;102032.91;;;0.28;95.79
73551;BME280;61816;53.582;10.096;2022-12-04T00:28:31;102038.59;;;0.18;95.01
73551;BME280;61816;53.582;10.096;2022-12-04T00:30:56;102037.25;;;0.08;95.82
73551;BME280;61816;53.582;10.096;2022-12-04T00:33:22;102026.09;;;0.20;95.43
73551;BME280;61816;53.582;10.096;2022-12-04T00:35:48;102035.00;;;0.19;94.88
73551;BME280;61816;53.582;10.096;2022-12-04T00:38:20;102027.84;;;0.21;95.27
73551;BME280;61816;53.582;10.096;2022-12-04T00:40:52;102030.53;;;0.42;94.91
73551;BME280;61816;53.582;10.096;2022-12-04T00:43:18;102035.84;;;0.42;94.79
73551;BME280;61816;53.582;10.096;2022-12-04T00:45:44;102028.88;;;0.17;95.30
73551;BME280;61816;53.582;10.096;2022-12-04T00:48:09;102026.56;;;0.30;95.48
73551;BME280;61816;53.582;10.096;2022-12-04T00:50:38;102027.88;;;0.42;94.86
73551;BME280;61816;53.582;10.096;2022-12-04T00:53:04;102031.38;;;0.42;94.57
73551;BME280;61816;53.582;10.096;2022-12-04T00:55:29;102024.09;;;0.25;95.45
73551;BME280;61816;53.582;10.096;2022-12-04T00:57:55;102030.63;;;0.39;95.35
73551;BME280;61816;53.582;10.096;2022-12-04T01:00:20;102020.38;;;0.30;95.58
73551;BME280;61816;53.582;10.096;2022-12-04T01:02:46;102023.44;;;0.20;95.53
73551;BME280;61816;53.582;10.096;2022-12-04T01:05:11;102017.53;;;0.34;95.36
73551;BME280;61816;53.582;10.096;2022-12-04T01:07:37;102023.72;;;0.35;95.30
73551;BME280;61816;53.582;10.096;2022-12-04T01:10:04;102029.41;;;0.25;96.28
73551;BME280;61816;53.582;10.096;2022-12-04T01:12:30;102038.09;;;0.31;95.79
73551;BME280;61816;53.582;10.096;2022-12-04T01:14:55;102023.72;;;0.35;95.60
73551;BME280;61816;53.582;10.096;2022-12-04T01:17:21;102018.94;;;0.43;95.38
73551;BME280;61816;53.582;10.096;2022-12-04T01:19:46;102020.13;;;0.36;95.88
73551;BME280;61816;53.582;10.096;2022-12-04T01:22:14;102027.72;;;0.45;95.87
73551;BME280;61816;53.582;10.096;2022-12-04T01:24:43;102023.06;;;0.50;95.34
73551;BME280;61816;53.582;10.096;2022-12-04T01:27:08;102030.69;;;0.59;95.17
73551;BME280;61816;53.582;10.096;2022-12-04T01:29:33;102025.59;;;0.33;95.97
73551;BME280;61816;53.582;10.096;2022-12-04T01:31:59;102016.66;;;0.34;96.25
73551;BME280;61816;53.582;10.096;2022-12-04T01:34:24;102023.59;;;0.38;96.67
73551;BME280;61816;53.582;10.096;2022-12-04T01:36:50;102018.69;;;0.49;96.21
73551;BME280;61816;53.582;10.096;2022-12-04T01:39:16;102025.06;;;0.45;95.82
73551;BME280;61816;53.582;10.096;2022-12-04T01:41:41;102015.31;;;0.23;97.23
73551;BME280;61816;53.582;10.096;2022-12-04T01:44:14;102021.75;;;0.18;97.24
73551;BME280;61816;53.582;10.096;2022-12-04T01:46:41;102024.34;;;0.19;97.24
73551;BME280;61816;53.582;10.096;2022-12-04T01:52:27;102013.97;;;0.13;98.38
73551;BME280;61816;53.582;10.096;2022-12-04T01:54:58;102011.56;;;0.07;98.64
73551;BME280;61816;53.582;10.096;2022-12-04T01:57:27;102015.56;;;0.17;98.40
73551;BME280;61816;53.582;10.096;2022-12-04T02:00:03;102016.66;;;0.34;97.40
73551;BME280;61816;53.582;10.096;2022-12-04T02:02:40;102006.88;;;0.12;98.44
73551;BME280;61816;53.582;10.096;2022-12-04T02:05:09;102019.31;;;0.13;98.04
73551;BME280;61816;53.582;10.096;2022-12-04T02:07:36;102016.31;;;0.21;98.59
73551;BME280;61816;53.582;10.096;2022-12-04T02:10:03;102021.00;;;0.36;97.88
73551;BME280;61816;53.582;10.096;2022-12-04T02:15:28;102009.75;;;0.50;97.25
73551;BME280;61816;53.582;10.096;2022-12-04T02:20:54;102000.03;;;0.49;97.44
73551;BME280;61816;53.582;10.096;2022-12-04T02:32:04;101990.97;;;0.53;97.72
73551;BME280;61816;53.582;10.096;2022-12-04T02:37:35;101991.09;;;0.50;97.16
73551;BME280;61816;53.582;10.096;2022-12-04T02:40:04;101995.22;;;0.37;97.91
73551;BME280;61816;53.582;10.096;2022-12-04T02:42:47;102002.53;;;0.32;97.92
73551;BME280;61816;53.582;10.096;2022-12-04T02:45:19;101990.69;;;0.39;98.22
73551;BME280;61816;53.582;10.096;2022-12-04T02:47:46;101980.44;;;0.50;98.23
73551;BME280;61816;53.582;10.096;2022-12-04T02:50:15;101989.78;;;0.40;97.82
73551;BME280;61816;53.582;10.096;2022-12-04T02:52:50;101978.16;;;0.20;99.31
73551;BME280;61816;53.582;10.096;2022-12-04T02:55:36;101979.63;;;0.28;99.03
73551;BME280;61816;53.582;10.096;2022-12-04T02:58:08;101979.38;;;0.34;98.42
73551;BME280;61816;53.582;10.096;2022-12-04T03:00:36;101991.88;;;0.32;98.48
73551;BME280;61816;53.582;10.096;2022-12-04T03:03:16;101981.44;;;0.47;98.44
73551;BME280;61816;53.582;10.096;2022-12-04T03:05:54;101985.50;;;0.56;98.09
73551;BME280;61816;53.582;10.096;2022-12-04T03:08:44;101989.78;;;0.40;98.78
73551;BME280;61816;53.582;10.096;2022-12-04T03:11:11;101992.97;;;0.48;98.57
73551;BME280;61816;53.582;10.096;2022-12-04T03:13:40;101999.16;;;0.48;98.99
73551;BME280;61816;53.582;10.096;2022-12-04T03:16:31;101996.06;;;0.37;98.81
73551;BME280;61816;53.582;10.096;2022-12-04T03:19:25;101999.34;;;0.64;98.84
73551;BME280;61816;53.582;10.096;2022-12-04T03:21:59;101996.03;;;0.59;98.66
73551;BME280;61816;53.582;10.096;2022-12-04T03:24:36;102004.81;;;0.41;99.06
73551;BME280;61816;53.582;10.096;2022-12-04T03:27:13;101994.97;;;0.43;98.96
73551;BME280;61816;53.582;10.096;2022-12-04T03:29:41;101992.75;;;0.32;99.16
73551;BME280;61816;53.582;10.096;2022-12-04T03:32:25;101993.50;;;0.36;99.82
73551;BME280;61816;53.582;10.096;2022-12-04T03:35:28;101994.69;;;0.49;99.13
73551;BME280;61816;53.582;10.096;2022-12-04T03:45:49;101987.22;;;0.57;99.12
73551;BME280;61816;53.582;10.096;2022-12-04T03:48:21;101988.16;;;0.76;98.05
73551;BME280;61816;53.582;10.096;2022-12-04T03:51:03;101983.09;;;0.70;98.57
73551;BME280;61816;53.582;10.096;2022-12-04T03:53:38;101987.09;;;0.60;98.78
73551;BME280;61816;53.582;10.096;2022-12-04T03:56:12;101986.16;;;0.81;98.14
73551;BME280;61816;53.582;10.096;2022-12-04T03:58:41;101982.03;;;0.54;98.85
73551;BME280;61816;53.582;10.096;2022-12-04T04:01:10;101989.50;;;0.46;99.18
73551;BME280;61816;53.582;10.096;2022-12-04T04:03:41;101979.38;;;0.54;99.55
73551;BME280;61816;53.582;10.096;2022-12-04T04:06:16;101979.91;;;0.62;99.24
73551;BME280;61816;53.582;10.096;2022-12-04T04:08:46;101977.75;;;0.70;98.55
73551;BME280;61816;53.582;10.096;2022-12-04T04:11:19;101985.47;;;0.76;98.80
73551;BME280;61816;53.582;10.096;2022-12-04T04:13:56;101976.28;;;0.63;98.22
73551;BME280;61816;53.582;10.096;2022-12-04T04:16:46;101981.25;;;0.72;99.07
73551;BME280;61816;53.582;10.096;2022-12-04T04:19:33;101980.06;;;0.59;99.33
73551;BME280;61816;53.582;10.096;2022-12-04T04:22:18;101979.13;;;0.60;98.98
73551;BME280;61816;53.582;10.096;2022-12-04T04:25:15;101979.31;;;0.56;99.30
73551;BME280;61816;53.582;10.096;2022-12-04T04:27:50;101977.84;;;0.48;100.00
73551;BME280;61816;53.582;10.096;2022-12-04T04:30:16;101982.03;;;0.54;99.78
73551;BME280;61816;53.582;10.096;2022-12-04T04:32:47;101978.03;;;0.64;99.73
73551;BME280;61816;53.582;10.096;2022-12-04T04:38:10;101976.03;;;0.69;99.29
73551;BME280;61816;53.582;10.096;2022-12-04T04:43:34;101983.34;;;0.85;99.35
73551;BME280;61816;53.582;10.096;2022-12-04T04:46:24;101981.88;;;0.77;99.21
73551;BME280;61816;53.582;10.096;2022-12-04T04:48:56;101982.69;;;0.79;99.30
73551;BME280;61816;53.582;10.096;2022-12-04T04:51:22;101985.41;;;0.78;98.67
73551;BME280;61816;53.582;10.096;2022-12-04T04:53:50;101976.03;;;0.69;99.50
73551;BME280;61816;53.582;10.096;2022-12-04T04:56:16;101979.91;;;0.62;99.90
73551;BME280;61816;53.582;10.096;2022-12-04T04:58:42;101970.00;;;0.66;99.53
73551;BME280;61816;53.582;10.096;2022-12-04T05:01:10;101980.91;;;0.60;100.00
73551;BME280;61816;53.582;10.096;2022-12-04T05:03:37;101981.50;;;0.66;99.99
73551;BME280;61816;53.582;10.096;2022-12-04T05:06:06;101988.81;;;0.81;99.13
73551;BME280;61816;53.582;10.096;2022-12-04T05:08:32;101986.44;;;0.75;99.30
73551;BME280;61816;53.582;10.096;2022-12-04T05:10:57;101991.56;;;0.80;98.87
73551;BME280;61816;53.582;10.096;2022-12-04T05:13:22;101985.44;;;0.97;98.85
73551;BME280;61816;53.582;10.096;2022-12-04T05:15:59;101988.69;;;0.64;99.17
73551;BME280;61816;53.582;10.096;2022-12-04T05:18:25;101992.03;;;0.69;99.60
73551;BME280;61816;53.582;10.096;2022-12-04T05:20:51;101994.31;;;0.78;98.88
73551;BME280;61816;53.582;10.096;2022-12-04T05:23:16;101993.75;;;0.70;99.38
73551;BME280;61816;53.582;10.096;2022-12-04T05:25:42;102000.16;;;0.87;98.74
73551;BME280;61816;53.582;10.096;2022-12-04T05:28:07;102000.53;;;0.77;99.45
73551;BME280;61816;53.582;10.096;2022-12-04T05:30:32;102004.16;;;0.76;99.56
73551;BME280;61816;53.582;10.096;2022-12-04T05:32:58;102000.53;;;0.77;99.02
73551;BME280;61816;53.582;10.096;2022-12-04T05:35:23;101991.63;;;0.78;99.38
73551;BME280;61816;53.582;10.096;2022-12-04T05:37:48;101994.66;;;0.90;98.64
73551;BME280;61816;53.582;10.096;2022-12-04T05:40:14;101990.69;;;0.79;99.38
73551;BME280;61816;53.582;10.096;2022-12-04T05:42:39;101992.66;;;0.95;98.71
73551;BME280;61816;53.582;10.096;2022-12-04T05:45:05;101993.22;;;0.82;99.25
73551;BME280;61816;53.582;10.096;2022-12-04T05:47:31;101989.88;;;0.77;99.39
73551;BME280;61816;53.582;10.096;2022-12-04T05:49:56;101992.56;;;0.98;99.01
73551;BME280;61816;53.582;10.096;2022-12-04T05:52:22;101990.50;;;1.03;98.84
73551;BME280;61816;53.582;10.096;2022-12-04T05:54:47;101991.47;;;0.81;99.82
73551;BME280;61816;53.582;10.096;2022-12-04T05:57:13;101991.06;;;0.91;99.30
73551;BME280;61816;53.582;10.096;2022-12-04T05:59:38;101990.03;;;0.74;100.00
73551;BME280;61816;53.582;10.096;2022-12-04T06:02:03;101989.75;;;0.80;100.00
73551;BME280;61816;53.582;10.096;2022-12-04T06:04:29;101981.56;;;0.85;99.84
73551;BME280;61816;53.582;10.096;2022-12-04T06:06:54;101991.63;;;0.78;100.00
73551;BME280;61816;53.582;10.096;2022-12-04T06:09:20;101989.75;;;0.80;99.75
73551;BME280;61816;53.582;10.096;2022-12-04T06:11:45;101987.34;;;0.95;99.74
73551;BME280;61816;53.582;10.096;2022-12-04T06:14:13;101985.44;;;0.97;99.43
73551;BME280;61816;53.582;10.096;2022-12-04T06:16:41;101986.78;;;1.07;98.91
73551;BME280;61816;53.582;10.096;2022-12-04T06:19:11;101987.06;;;1.01;99.50
73551;BME280;61816;53.582;10.096;2022-12-04T06:21:38;101992.66;;;0.95;99.67
73551;BME280;61816;53.582;10.096;2022-12-04T06:24:04;101994.66;;;0.90;100.00
73551;BME280;61816;53.582;10.096;2022-12-04T06:26:30;102002.00;;;0.85;99.92
73551;BME280;61816;53.582;10.096;2022-12-04T06:28:56;102005.47;;;0.87;99.79
73551;BME280;61816;53.582;10.096;2022-12-04T06:31:23;102006.19;;;0.90;99.83
73551;BME280;61816;53.582;10.096;2022-12-04T06:33:49;102000.28;;;0.84;100.00
73551;BME280;61816;53.582;10.096;2022-12-04T06:36:19;101998.28;;;0.89;100.00
73551;BME280;61816;53.582;10.096;2022-12-04T06:38:49;101998.53;;;0.82;100.00
73551;BME280;61816;53.582;10.096;2022-12-04T06:41:18;102008.81;;;0.92;99.97
73551;BME280;61816;53.582;10.096;2022-12-04T06:43:44;102005.81;;;0.99;100.00
73551;BME280;61816;53.582;10.096;2022-12-04T06:46:15;102003.97;;;1.20;99.22
73551;BME280;61816;53.582;10.096;2022-12-04T06:48:41;101994.13;;;1.02;99.57
73551;BME280;61816;53.582;10.096;2022-12-04T06:51:12;102000.78;;;1.12;99.04
73551;BME280;61816;53.582;10.096;2022-12-04T06:53:38;101996.41;;;0.91;100.00
73551;BME280;61816;53.582;10.096;2022-12-04T06:56:06;102003.59;;;0.89;100.00
73551;BME280;61816;53.582;10.096;2022-12-04T06:58:32;102009.72;;;1.11;99.72
73551;BME280;61816;53.582;10.096;2022-12-04T07:00:58;102020.25;;;1.14;99.96
73551;BME280;61816;53.582;10.096;2022-12-04T07:03:24;102018.50;;;1.13;100.00
73551;BME280;61816;53.582;10.096;2022-12-04T07:05:50;102015.09;;;1.09;99.61
73551;BME280;61816;53.582;10.096;2022-12-04T07:08:16;102010.66;;;0.90;100.00
73551;BME280;61816;53.582;10.096;2022-12-04T07:10:42;102015.72;;;0.96;100.00
73551;BME280;61816;53.582;10.096;2022-12-04T07:13:08;102017.34;;;1.00;100.00
73551;BME280;61816;53.582;10.096;2022-12-04T07:15:34;102006.91;;;1.14;100.00
73551;BME280;61816;53.582;10.096;2022-12-04T07:18:00;102012.00;;;1.00;100.00
73551;BME280;61816;53.582;10.096;2022-12-04T07:20:26;102012.88;;;1.00;100.00
73551;BME280;61816;53.582;10.096;2022-12-04T07:22:51;102004.38;;;1.11;100.00
73551;BME280;61816;53.582;10.096;2022-12-04T07:25:17;102009.72;;;1.11;100.00
73551;BME280;61816;53.582;10.096;2022-12-04T07:27:42;102010.63;;;1.10;100.00
73551;BME280;61816;53.582;10.096;2022-12-04T07:30:08;102007.69;;;1.16;100.00
73551;BME280;61816;53.582;10.096;2022-12-04T07:32:34;102008.16;;;1.26;99.96
73551;BME280;61816;53.582;10.096;2022-12-04T07:34:59;102004.63;;;1.25;99.72
73551;BME280;61816;53.582;10.096;2022-12-04T07:37:25;102008.84;;;1.29;99.93
73551;BME280;61816;53.582;10.096;2022-12-04T07:39:50;102001.94;;;1.25;100.00
73551;BME280;61816;53.582;10.096;2022-12-04T07:42:17;102011.19;;;1.18;100.00
73551;BME280;61816;53.582;10.096;2022-12-04T07:44:42;102009.56;;;1.14;100.00
73551;BME280;61816;53.582;10.096;2022-12-04T07:47:08;102023.34;;;1.43;99.35
73551;BME280;61816;53.582;10.096;2022-12-04T07:49:33;102015.63;;;1.36;99.48
73551;BME280;61816;53.582;10.096;2022-12-04T07:51:58;102011.91;;;1.41;99.70
73551;BME280;61816;53.582;10.096;2022-12-04T07:54:24;102031.25;;;1.46;99.96
73551;BME280;61816;53.582;10.096;2022-12-04T07:56:49;102024.59;;;1.35;99.71
73551;BME280;61816;53.582;10.096;2022-12-04T07:59:14;102026.63;;;1.30;99.67
73551;BME280;61816;53.582;10.096;2022-12-04T08:01:40;102031.22;;;1.27;100.00
73551;BME280;61816;53.582;10.096;2022-12-04T08:04:05;102031.25;;;1.46;99.62
73551;BME280;61816;53.582;10.096;2022-12-04T08:06:32;102036.06;;;1.38;99.89
73551;BME280;61816;53.582;10.096;2022-12-04T08:08:58;102031.66;;;1.36;100.00
73551;BME280;61816;53.582;10.096;2022-12-04T08:11:25;102031.38;;;1.43;99.85
73551;BME280;61816;53.582;10.096;2022-12-04T08:13:59;102025.81;;;1.28;99.50
73551;BME280;61816;53.582;10.096;2022-12-04T08:16:26;102020.66;;;1.24;100.00
73551;BME280;61816;53.582;10.096;2022-12-04T08:18:52;102030.34;;;1.26;100.00
73551;BME280;61816;53.582;10.096;2022-12-04T08:21:20;102021.13;;;1.33;100.00
73551;BME280;61816;53.582;10.096;2022-12-04T08:23:47;102028.34;;;1.31;100.00
73551;BME280;61816;53.582;10.096;2022-12-04T08:26:13;102028.34;;;1.31;100.00
73551;BME280;61816;53.582;10.096;2022-12-04T08:28:39;102014.84;;;1.34;100.00
73551;BME280;61816;53.582;10.096;2022-12-04T08:31:26;102032.81;;;1.50;100.00
73551;BME280;61816;53.582;10.096;2022-12-04T08:33:53;102028.66;;;1.63;99.50
73551;BME280;61816;53.582;10.096;2022-12-04T08:36:20;102024.31;;;1.42;99.95
73551;BME280;61816;53.582;10.096;2022-12-04T08:38:47;102018.09;;;1.60;99.86
73551;BME280;61816;53.582;10.096;2022-12-04T08:41:14;102019.84;;;1.61;100.00
73551;BME280;61816;53.582;10.096;2022-12-04T08:43:41;102016.09;;;1.65;99.08
73551;BME280;61816;53.582;10.096;2022-12-04T08:46:12;102017.38;;;1.75;99.30
73551;BME280;61816;53.582;10.096;2022-12-04T08:48:38;102016.13;;;1.82;99.04
73551;BME280;61816;53.582;10.096;2022-12-04T08:51:04;102018.22;;;1.95;98.58
73551;BME280;61816;53.582;10.096;2022-12-04T08:53:32;102020.03;;;1.94;98.82
73551;BME280;61816;53.582;10.096;2022-12-04T08:55:59;102021.25;;;1.87;98.84
73551;BME280;61816;53.582;10.096;2022-12-04T08:58:25;102025.44;;;1.93;98.65
73551;BME280;61816;53.582;10.096;2022-12-04T09:00:50;102017.72;;;1.86;98.64
73551;BME280;61816;53.582;10.096;2022-12-04T09:03:18;102019.38;;;1.89;98.78
73551;BME280;61816;53.582;10.096;2022-12-04T09:05:44;102017.72;;;1.86;98.48
73551;BME280;61816;53.582;10.096;2022-12-04T09:08:11;102018.97;;;1.79;98.91
73551;BME280;61816;53.582;10.096;2022-12-04T09:10:37;102019.81;;;1.99;98.42
73551;BME280;61816;53.582;10.096;2022-12-04T09:13:03;102021.13;;;1.90;98.79
73551;BME280;61816;53.582;10.096;2022-12-04T09:15:29;102012.75;;;1.98;98.38
73551;BME280;61816;53.582;10.096;2022-12-04T09:17:54;102022.22;;;2.22;97.31
73551;BME280;61816;53.582;10.096;2022-12-04T09:20:20;102020.44;;;2.04;97.77
73551;BME280;61816;53.582;10.096;2022-12-04T09:22:45;102017.97;;;2.18;97.44
73551;BME280;61816;53.582;10.096;2022-12-04T09:25:11;102011.22;;;2.28;96.92
73551;BME280;61816;53.582;10.096;2022-12-04T09:27:37;102013.88;;;2.11;97.68
73551;BME280;61816;53.582;10.096;2022-12-04T09:30:09;102014.97;;;2.24;97.64
73551;BME280;61816;53.582;10.096;2022-12-04T09:32:35;102010.44;;;2.43;96.71
73551;BME280;61816;53.582;10.096;2022-12-04T09:35:01;102018.94;;;2.52;96.16
73551;BME280;61816;53.582;10.096;2022-12-04T09:37:26;102005.56;;;2.69;95.45
73551;BME280;61816;53.582;10.096;2022-12-04T09:39:51;102009.97;;;2.70;95.70
73551;BME280;61816;53.582;10.096;2022-12-04T09:42:25;102008.22;;;2.52;96.20
73551;BME280;61816;53.582;10.096;2022-12-04T09:44:58;102012.41;;;2.57;96.44
73551;BME280;61816;53.582;10.096;2022-12-04T09:47:32;102001.47;;;2.44;96.27
73551;BME280;61816;53.582;10.096;2022-12-04T09:50:06;102004.78;;;2.50;96.70
73551;BME280;61816;53.582;10.096;2022-12-04T09:52:49;102002.25;;;2.64;96.36
73551;BME280;61816;53.582;10.096;2022-12-04T09:55:26;101996.44;;;2.38;96.78
73551;BME280;61816;53.582;10.096;2022-12-04T09:57:55;101992.19;;;2.52;96.67
73551;BME280;61816;53.582;10.096;2022-12-04T10:00:21;101990.69;;;2.63;96.14
73551;BME280;61816;53.582;10.096;2022-12-04T10:02:51;101992.50;;;2.45;96.95
73551;BME280;61816;53.582;10.096;2022-12-04T10:08:27;101981.19;;;2.58;97.18
73551;BME280;61816;53.582;10.096;2022-12-04T10:11:16;101991.56;;;2.64;96.71
73551;BME280;61816;53.582;10.096;2022-12-04T10:16:18;101993.72;;;2.90;96.12
73551;BME280;61816;53.582;10.096;2022-12-04T10:26:53;101989.03;;;2.78;96.11
73551;BME280;61816;53.582;10.096;2022-12-04T10:29:34;101988.88;;;2.81;96.41
73551;BME280;61816;53.582;10.096;2022-12-04T10:32:31;101982.72;;;2.96;95.71
73551;BME280;61816;53.582;10.096;2022-12-04T10:35:07;101986.44;;;2.77;96.64
73551;BME280;61816;53.582;10.096;2022-12-04T10:37:39;101974.56;;;2.82;96.69
73551;BME280;61816;53.582;10.096;2022-12-04T10:40:26;101982.91;;;2.76;97.01
73551;BME280;61816;53.582;10.096;2022-12-04T10:43:14;101978.34;;;2.78;97.12
73551;BME280;61816;53.582;10.096;2022-12-04T10:45:42;101976.94;;;2.71;97.06
73551;BME280;61816;53.582;10.096;2022-12-04T10:48:30;101975.03;;;2.73;96.87
73551;BME280;61816;53.582;10.096;2022-12-04T10:50:56;101985.34;;;2.63;96.91
73551;BME280;61816;53.582;10.096;2022-12-04T10:53:29;101970.66;;;2.55;98.04
73551;BME280;61816;53.582;10.096;2022-12-04T10:55:55;101968.72;;;2.91;96.61
73551;BME280;61816;53.582;10.096;2022-12-04T10:58:34;101974.09;;;2.74;96.91
73551;BME280;61816;53.582;10.096;2022-12-04T11:01:11;101966.56;;;2.65;97.06
73551;BME280;61816;53.582;10.096;2022-12-04T11:03:42;101962.59;;;2.72;96.61
73551;BME280;61816;53.582;10.096;2022-12-04T11:06:09;101957.97;;;2.76;97.23
73551;BME280;61816;53.582;10.096;2022-12-04T11:08:41;101962.69;;;2.88;96.91
73551;BME280;61816;53.582;10.096;2022-12-04T11:11:12;101958.53;;;2.65;97.13
73551;BME280;61816;53.582;10.096;2022-12-04T11:13:41;101961.38;;;2.62;97.41
73551;BME280;61816;53.582;10.096;2022-12-04T11:16:31;101960.38;;;2.80;97.11
73551;BME280;61816;53.582;10.096;2022-12-04T11:18:57;101963.00;;;2.64;97.51
73551;BME280;61816;53.582;10.096;2022-12-04T11:21:25;101958.84;;;2.76;97.37
73551;BME280;61816;53.582;10.096;2022-12-04T11:23:52;101952.09;;;2.69;97.40
73551;BME280;61816;53.582;10.096;2022-12-04T11:26:36;101948.78;;;2.64;97.83
73551;BME280;61816;53.582;10.096;2022-12-04T11:29:03;101951.06;;;2.71;97.95
73551;BME280;61816;53.582;10.096;2022-12-04T11:31:30;101949.03;;;2.92;97.25
73551;BME280;61816;53.582;10.096;2022-12-04T11:34:03;101945.00;;;2.68;97.87
73551;BME280;61816;53.582;10.096;2022-12-04T11:36:33;101951.13;;;2.87;97.32
73551;BME280;61816;53.582;10.096;2022-12-04T11:41:37;101945.44;;;2.93;96.82
73551;BME280;61816;53.582;10.096;2022-12-04T11:44:05;101946.22;;;2.95;96.85
73551;BME280;61816;53.582;10.096;2022-12-04T11:46:32;101949.34;;;2.86;97.33
73551;BME280;61816;53.582;10.096;2022-12-04T11:48:58;101943.53;;;2.95;97.16
73551;BME280;61816;53.582;10.096;2022-12-04T11:54:29;101927.16;;;3.17;96.76
73551;BME280;61816;53.582;10.096;2022-12-04T11:57:23;101933.88;;;3.09;96.89
73551;BME280;61816;53.582;10.096;2022-12-04T12:02:38;101928.88;;;3.18;96.57
73551;BME280;61816;53.582;10.096;2022-12-04T12:10:35;101916.81;;;3.27;96.51
73551;BME280;61816;53.582;10.096;2022-12-04T12:13:20;101916.25;;;3.05;97.22
73551;BME280;61816;53.582;10.096;2022-12-04T12:16:11;101917.66;;;3.12;97.11
73551;BME280;61816;53.582;10.096;2022-12-04T12:32:15;101930.97;;;3.29;96.44
73551;BME280;61816;53.582;10.096;2022-12-04T12:34:45;101925.81;;;3.26;97.51
73551;BME280;61816;53.582;10.096;2022-12-04T12:37:17;101924.38;;;3.19;96.69
73551;BME280;61816;53.582;10.096;2022-12-04T12:42:22;101916.31;;;3.20;97.58
73551;BME280;61816;53.582;10.096;2022-12-04T12:47:22;101913.00;;;3.31;97.08
73551;BME280;61816;53.582;10.096;2022-12-04T12:49:56;101903.25;;;3.30;97.30
73551;BME280;61816;53.582;10.096;2022-12-04T12:52:37;101904.41;;;3.26;97.18
73551;BME280;61816;53.582;10.096;2022-12-04T12:55:15;101902.47;;;3.28;97.72
73551;BME280;61816;53.582;10.096;2022-12-04T12:57:54;101901.44;;;3.15;97.92
73551;BME280;61816;53.582;10.096;2022-12-04T13:00:24;101891.66;;;3.45;97.04
73551;BME280;61816;53.582;10.096;2022-12-04T13:02:55;101897.47;;;3.22;98.17
73551;BME280;61816;53.582;10.096;2022-12-04T13:05:32;101882.09;;;3.41;97.37
73551;BME280;61816;53.582;10.096;2022-12-04T13:08:29;101880.53;;;3.37;97.92
73551;BME280;61816;53.582;10.096;2022-12-04T13:11:17;101881.06;;;3.60;97.58
73551;BME280;61816;53.582;10.096;2022-12-04T13:13:51;101866.75;;;3.29;98.10
73551;BME280;61816;53.582;10.096;2022-12-04T13:16:22;101865.84;;;3.44;97.93
73551;BME280;61816;53.582;10.096;2022-12-04T13:18:57;101868.63;;;3.43;97.87
73551;BME280;61816;53.582;10.096;2022-12-04T13:21:31;101861.00;;;3.67;97.13
73551;BME280;61816;53.582;10.096;2022-12-04T13:26:39;101855.50;;;3.54;97.56
73551;BME280;61816;53.582;10.096;2022-12-04T13:29:48;101848.25;;;3.40;98.69
73551;BME280;61816;53.582;10.096;2022-12-04T13:37:56;101851.34;;;3.48;98.89
73551;BME280;61816;53.582;10.096;2022-12-04T13:43:26;101842.25;;;3.67;98.42
73551;BME280;61816;53.582;10.096;2022-12-04T13:45:54;101841.47;;;3.65;98.81
73551;BME280;61816;53.582;10.096;2022-12-04T13:48:29;101835.75;;;3.71;98.33
73551;BME280;61816;53.582;10.096;2022-12-04T13:51:25;101836.28;;;3.62;98.92
73551;BME280;61816;53.582;10.096;2022-12-04T13:54:41;101844.44;;;3.60;99.28
73551;BME280;61816;53.582;10.096;2022-12-04T13:56:53;101856.16;;;3.73;99.17
73551;BME280;61816;53.582;10.096;2022-12-04T14:01:47;101849.72;;;3.76;99.18
73551;BME280;61816;53.582;10.096;2022-12-04T14:06:59;101856.44;;;3.83;99.49
73551;BME280;61816;53.582;10.096;2022-12-04T14:09:37;101856.50;;;3.51;100.00
73551;BME280;61816;53.582;10.096;2022-12-04T14:12:06;101865.03;;;3.74;100.00
73551;BME280;61816;53.582;10.096;2022-12-04T14:14:44;101866.16;;;3.70;100.00
73551;BME280;61816;53.582;10.096;2022-12-04T14:17:22;101863.78;;;3.65;100.00
73551;BME280;61816;53.582;10.096;2022-12-04T14:19:55;101872.78;;;3.48;100.00
73551;BME280;61816;53.582;10.096;2022-12-04T14:30:22;101868.63;;;3.59;100.00
73551;BME280;61816;53.582;10.096;2022-12-04T14:32:49;101855.63;;;3.67;100.00
73551;BME280;61816;53.582;10.096;2022-12-04T14:35:19;101862.47;;;3.57;100.00
73551;BME280;61816;53.582;10.096;2022-12-04T14:37:51;101859.63;;;3.60;100.00
73551;BME280;61816;53.582;10.096;2022-12-04T14:40:23;101869.03;;;3.67;100.00
73551;BME280;61816;53.582;10.096;2022-12-04T14:42:49;101859.28;;;3.66;100.00
73551;BME280;61816;53.582;10.096;2022-12-04T14:45:32;101853.56;;;3.72;100.00
73551;BME280;61816;53.582;10.096;2022-12-04T14:48:17;101861.16;;;3.64;100.00
73551;BME280;61816;53.582;10.096;2022-12-04T14:51:07;101856.00;;;3.61;100.00